createdAt,value
2018-12-18T00:00:49.893Z,35.43
2018-12-18T00:03:17.803Z,35.60
2018-12-18T00:05:45.692Z,35.20
2018-12-18T00:08:13.759Z,35.50
2018-12-18T00:10:47.094Z,32.53
2018-12-18T00:13:14.962Z,38.80
2018-12-18T00:15:42.881Z,36.00
2018-12-18T00:18:10.871Z,35.17
2018-12-18T00:20:38.968Z,37.17
2018-12-18T00:23:07.246Z,32.47
2018-12-18T00:25:35.293Z,34.80
2018-12-18T00:28:03.237Z,38.27
2018-12-18T00:30:31.350Z,34.77
2018-12-18T00:32:59.390Z,33.60
2018-12-18T00:35:27.256Z,32.10
2018-12-18T00:37:55.202Z,33.40
2018-12-18T00:40:23.436Z,31.50
2018-12-18T00:42:51.478Z,35.07
2018-12-18T00:45:19.443Z,32.27
2018-12-18T00:47:47.559Z,29.63
2018-12-18T00:50:15.499Z,31.10
2018-12-18T00:52:43.442Z,34.60
2018-12-18T00:55:11.455Z,35.17
2018-12-18T00:57:39.730Z,36.20
2018-12-18T01:00:08.972Z,34.43
2018-12-18T01:02:36.883Z,31.43
2018-12-18T01:05:05.569Z,29.67
2018-12-18T01:07:33.511Z,29.63
2018-12-18T01:10:01.524Z,35.17
2018-12-18T01:12:29.592Z,27.63
2018-12-18T01:14:57.632Z,32.67
2018-12-18T01:17:25.735Z,31.17
2018-12-18T01:19:53.703Z,29.67
2018-12-18T01:22:21.780Z,32.17
2018-12-18T01:24:49.670Z,31.47
2018-12-18T01:27:17.786Z,34.13
2018-12-18T01:29:45.748Z,34.03
2018-12-18T01:32:13.717Z,28.37
2018-12-18T01:34:41.683Z,36.60
2018-12-18T01:37:09.673Z,31.87
2018-12-18T01:39:37.555Z,30.13
2018-12-18T01:42:05.632Z,32.67
2018-12-18T01:44:33.673Z,33.10
2018-12-18T01:47:01.771Z,29.37
2018-12-18T01:49:29.637Z,30.10
2018-12-18T01:51:57.568Z,26.93
2018-12-18T01:54:25.433Z,28.67
2018-12-18T01:56:53.474Z,27.50
2018-12-18T01:59:21.717Z,31.80
2018-12-18T02:01:50.381Z,35.30
2018-12-18T02:04:18.322Z,28.60
2018-12-18T02:06:46.341Z,27.27
2018-12-18T02:09:14.378Z,30.37
2018-12-18T02:11:42.484Z,27.17
2018-12-18T02:14:10.534Z,31.00
2018-12-18T02:16:38.500Z,29.13
2018-12-18T02:19:06.667Z,28.87
2018-12-18T02:21:34.632Z,28.17
2018-12-18T02:24:02.497Z,29.93
2018-12-18T02:26:30.363Z,32.33
2018-12-18T02:28:59.378Z,28.17
2018-12-18T02:31:27.329Z,25.50
2018-12-18T02:33:55.330Z,28.83
2018-12-18T02:36:23.175Z,27.03
2018-12-18T02:38:51.342Z,29.70
2018-12-18T02:41:19.318Z,27.53
2018-12-18T02:43:47.412Z,26.70
2018-12-18T02:46:15.269Z,29.33
2018-12-18T02:48:43.204Z,29.13
2018-12-18T02:51:11.074Z,29.60
2018-12-18T02:53:39.060Z,38.30
2018-12-18T02:56:07.187Z,31.00
2018-12-18T02:58:35.193Z,30.60
2018-12-18T03:01:03.409Z,31.87
2018-12-18T03:03:31.548Z,30.27
2018-12-18T03:05:59.489Z,29.70
2018-12-18T03:08:27.355Z,27.97
2018-12-18T03:10:55.847Z,28.67
2018-12-18T03:13:24.036Z,31.50
2018-12-18T03:15:52.132Z,25.63
2018-12-18T03:18:20.167Z,31.07
2018-12-18T03:20:48.137Z,26.07
2018-12-18T03:23:16.002Z,32.13
2018-12-18T03:25:43.990Z,28.80
2018-12-18T03:28:12.079Z,33.13
2018-12-18T03:30:40.122Z,29.93
2018-12-18T03:33:08.188Z,29.73
2018-12-18T03:35:36.171Z,29.17
2018-12-18T03:38:04.364Z,26.50
2018-12-18T03:40:32.609Z,31.53
2018-12-18T03:43:00.711Z,33.07
2018-12-18T03:45:28.644Z,28.97
2018-12-18T03:47:56.506Z,29.77
2018-12-18T03:50:24.372Z,26.40
2018-12-18T03:52:52.362Z,28.80
2018-12-18T03:55:20.454Z,30.37
2018-12-18T03:57:48.500Z,29.80
2018-12-18T04:00:16.602Z,31.83
2018-12-18T04:02:44.525Z,32.50
2018-12-18T04:05:12.515Z,32.77
2018-12-18T04:07:40.672Z,31.43
2018-12-18T04:10:08.646Z,29.90
2018-12-18T04:12:36.747Z,31.03
2018-12-18T04:15:05.581Z,33.30
2018-12-18T04:17:33.575Z,27.27
2018-12-18T04:20:01.560Z,30.20
2018-12-18T04:22:29.826Z,31.60
2018-12-18T04:24:57.892Z,34.40
2018-12-18T04:27:25.857Z,35.17
2018-12-18T04:29:53.823Z,33.93
2018-12-18T04:32:21.789Z,32.07
2018-12-18T04:34:49.992Z,33.83
2018-12-18T04:37:18.121Z,31.03
2018-12-18T04:39:46.012Z,31.00
2018-12-18T04:42:13.876Z,31.77
2018-12-18T04:44:41.716Z,32.53
2018-12-18T04:47:09.609Z,33.73
2018-12-18T04:49:37.526Z,36.17
2018-12-18T04:52:05.589Z,33.10
2018-12-18T04:54:33.530Z,32.70
2018-12-18T04:57:01.471Z,38.00
2018-12-18T04:59:29.441Z,37.87
2018-12-18T05:01:57.559Z,34.60
2018-12-18T05:04:25.543Z,36.53
2018-12-18T05:06:53.410Z,34.80
2018-12-18T05:09:21.425Z,40.63
2018-12-18T05:11:49.290Z,36.27
2018-12-18T05:14:17.096Z,36.00
2018-12-18T05:16:45.346Z,31.80
2018-12-18T05:19:13.288Z,37.30
2018-12-18T05:21:41.905Z,37.27
2018-12-18T05:24:10.169Z,36.30
2018-12-18T05:26:38.271Z,36.70
2018-12-18T05:29:06.325Z,37.33
2018-12-18T05:31:34.267Z,38.33
2018-12-18T05:34:02.132Z,40.67
2018-12-18T05:36:30.147Z,42.60
2018-12-18T05:38:58.187Z,38.73
2018-12-18T05:41:26.080Z,40.47
2018-12-18T05:43:54.162Z,39.03
2018-12-18T05:46:22.486Z,37.10
2018-12-18T05:48:50.350Z,33.97
2018-12-18T05:51:18.370Z,38.40
2018-12-18T05:53:46.407Z,40.47
2018-12-18T05:56:14.513Z,38.10
2018-12-18T05:58:42.414Z,36.00
2018-12-18T06:01:10.305Z,41.73
2018-12-18T06:03:38.964Z,46.13
2018-12-18T06:06:07.185Z,37.00
2018-12-18T06:08:35.279Z,36.07
2018-12-18T06:11:03.247Z,34.40
2018-12-18T06:13:31.383Z,37.53
2018-12-18T06:15:59.389Z,32.33
2018-12-18T06:18:27.541Z,35.00
2018-12-18T06:20:55.480Z,41.60
2018-12-18T06:23:23.396Z,38.23
2018-12-18T06:25:51.336Z,36.70
2018-12-18T06:28:19.277Z,38.80
2018-12-18T06:30:47.167Z,33.10
2018-12-18T06:33:15.358Z,39.60
2018-12-18T06:35:43.449Z,37.40
2018-12-18T06:38:11.490Z,35.87
2018-12-18T06:40:39.455Z,36.93
2018-12-18T06:43:07.421Z,42.40
2018-12-18T06:45:35.387Z,39.10
2018-12-18T06:48:03.599Z,41.30
2018-12-18T06:50:31.643Z,34.67
2018-12-18T06:52:59.583Z,35.43
2018-12-18T06:55:27.724Z,36.80
2018-12-18T06:57:55.739Z,38.33
2018-12-18T07:00:24.431Z,41.37
2018-12-18T07:02:52.346Z,36.97
2018-12-18T07:05:20.295Z,38.43
2018-12-18T07:07:48.377Z,36.07
2018-12-18T07:10:16.417Z,37.23
2018-12-18T07:12:44.360Z,36.40
2018-12-18T07:15:12.499Z,32.70
2018-12-18T07:17:40.514Z,37.10
2018-12-18T07:20:08.641Z,39.43
2018-12-18T07:22:36.472Z,36.20
2018-12-18T07:25:05.087Z,40.33
2018-12-18T07:27:33.028Z,37.83
2018-12-18T07:30:01.742Z,38.23
2018-12-18T07:32:29.935Z,40.23
2018-12-18T07:34:57.775Z,30.67
2018-12-18T07:37:25.741Z,34.00
2018-12-18T07:39:53.681Z,35.00
2018-12-18T07:42:21.547Z,37.60
2018-12-18T07:44:49.353Z,40.43
2018-12-18T07:47:17.404Z,38.87
2018-12-18T07:49:45.477Z,38.33
2018-12-18T07:52:13.569Z,41.13
2018-12-18T07:54:41.625Z,41.77
2018-12-18T07:57:09.567Z,36.13
2018-12-18T07:59:37.433Z,41.10
2018-12-18T08:02:05.297Z,40.43
2018-12-18T08:04:33.163Z,35.33
2018-12-18T08:07:01.199Z,35.23
2018-12-18T08:09:29.220Z,32.30
2018-12-18T08:11:57.319Z,47.90
2018-12-18T08:14:25.301Z,38.50
2018-12-18T08:16:53.242Z,41.50
2018-12-18T08:19:21.328Z,40.37
2018-12-18T08:21:49.050Z,36.27
2018-12-18T08:24:17.039Z,37.27
2018-12-18T08:26:45.006Z,38.50
2018-12-18T08:29:12.970Z,34.70
2018-12-18T08:31:40.912Z,37.73
2018-12-18T08:34:08.852Z,38.27
2018-12-18T08:36:36.694Z,34.57
2018-12-18T08:39:07.509Z,36.43
2018-12-18T08:41:35.607Z,37.80
2018-12-18T08:44:03.864Z,34.57
2018-12-18T08:46:32.163Z,33.17
2018-12-18T08:49:00.252Z,30.57
2018-12-18T08:51:28.507Z,33.43
2018-12-18T08:53:56.572Z,41.60
2018-12-18T08:56:24.492Z,40.37
2018-12-18T08:58:52.483Z,38.83
2018-12-18T09:01:20.423Z,37.00
2018-12-18T09:03:48.367Z,35.63
2018-12-18T09:06:16.217Z,38.43
2018-12-18T09:08:44.083Z,36.97
2018-12-18T09:11:12.037Z,34.90
2018-12-18T09:13:40.124Z,32.67
2018-12-18T09:19:07.446Z,36.57
2018-12-18T09:21:35.637Z,37.33
2018-12-18T09:24:03.745Z,34.77
2018-12-18T09:26:31.792Z,36.87
2018-12-18T09:28:59.733Z,36.83
2018-12-18T09:31:27.598Z,34.80
2018-12-18T09:33:55.742Z,33.43
2018-12-18T09:36:23.880Z,35.63
2018-12-18T09:38:57.495Z,36.50
2018-12-18T09:41:25.571Z,36.53
2018-12-18T09:43:55.689Z,39.00
2018-12-18T09:46:23.757Z,39.43
2018-12-18T09:48:51.807Z,37.63
2018-12-18T09:51:19.900Z,33.67
2018-12-18T09:53:47.939Z,38.03
2018-12-18T09:56:16.231Z,40.47
2018-12-18T09:58:44.170Z,34.10
2018-12-18T10:01:12.082Z,39.10
2018-12-18T10:03:40.028Z,34.10
2018-12-18T10:06:08.127Z,32.63
2018-12-18T10:08:36.158Z,36.47
2018-12-18T10:11:04.265Z,30.57
2018-12-18T10:13:32.132Z,31.70
2018-12-18T10:16:00.181Z,34.73
2018-12-18T10:18:28.121Z,34.33
2018-12-18T10:20:56.312Z,37.37
2018-12-18T10:23:24.406Z,41.47
2018-12-18T10:25:52.345Z,34.80
2018-12-18T10:28:20.354Z,40.57
2018-12-18T10:30:48.075Z,31.97
2018-12-18T10:33:16.064Z,35.87
2018-12-18T10:35:44.159Z,35.07
2018-12-18T10:38:12.196Z,42.90
2018-12-18T10:40:40.162Z,32.57
2018-12-18T10:43:08.372Z,35.13
2018-12-18T10:45:36.444Z,32.07
2018-12-18T10:48:04.459Z,37.00
2018-12-18T10:50:32.372Z,42.90
2018-12-18T10:53:00.415Z,30.80
2018-12-18T10:55:28.381Z,31.80
2018-12-18T10:57:56.247Z,33.70
2018-12-18T11:00:29.786Z,31.70
2018-12-18T11:02:58.177Z,28.40
2018-12-18T11:05:26.569Z,35.17
2018-12-18T11:07:54.590Z,37.27
2018-12-18T11:10:22.624Z,34.90
2018-12-18T11:12:56.184Z,36.63
2018-12-18T11:15:24.105Z,30.20
2018-12-18T11:17:52.122Z,34.50
2018-12-18T11:20:20.162Z,33.50
2018-12-18T11:22:48.250Z,36.63
2018-12-18T11:25:16.193Z,32.80
2018-12-18T11:27:44.090Z,30.53
2018-12-18T11:30:12.273Z,29.30
2018-12-18T11:32:40.191Z,40.23
2018-12-18T11:35:08.055Z,31.57
2018-12-18T11:37:36.046Z,33.93
2018-12-18T11:40:04.736Z,37.77
2018-12-18T11:42:32.837Z,34.33
2018-12-18T11:45:00.905Z,31.07
2018-12-18T11:47:28.959Z,31.00
2018-12-18T11:49:57.050Z,33.03
2018-12-18T11:52:25.090Z,31.37
2018-12-18T11:54:53.006Z,35.93
2018-12-18T11:57:21.248Z,33.27
2018-12-18T11:59:49.334Z,31.37
2018-12-18T12:02:17.377Z,30.90
2018-12-18T12:04:45.490Z,27.73
2018-12-18T12:07:13.485Z,30.70
2018-12-18T12:09:41.618Z,27.23
2018-12-18T12:12:09.485Z,27.53
2018-12-18T12:14:37.355Z,27.00
2018-12-18T12:17:05.398Z,25.30
2018-12-18T12:19:33.341Z,27.20
2018-12-18T12:22:01.331Z,28.67
2018-12-18T12:24:29.621Z,32.83
2018-12-18T12:26:59.637Z,25.33
2018-12-18T12:29:27.725Z,28.87
2018-12-18T12:31:55.795Z,30.23
2018-12-18T12:34:23.866Z,34.03
2018-12-18T12:36:51.875Z,26.60
2018-12-18T12:39:19.866Z,26.07
2018-12-18T12:41:47.735Z,29.53
2018-12-18T12:44:15.922Z,29.90
2018-12-18T12:46:44.018Z,31.20
2018-12-18T12:49:13.178Z,28.90
2018-12-18T12:51:41.170Z,25.70
2018-12-18T12:54:09.110Z,27.97
2018-12-18T12:56:37.122Z,28.20
2018-12-18T12:59:05.166Z,29.80
2018-12-18T13:01:33.455Z,35.00
2018-12-18T13:04:01.396Z,29.97
2018-12-18T13:06:29.261Z,29.67
2018-12-18T13:08:57.201Z,29.87
2018-12-18T13:11:25.120Z,28.50
2018-12-18T13:13:53.082Z,31.83
2018-12-18T13:16:20.924Z,28.43
2018-12-18T13:18:50.014Z,29.20
2018-12-18T13:21:18.005Z,36.27
2018-12-18T13:23:46.109Z,26.90
2018-12-18T13:26:14.218Z,31.97
2018-12-18T13:28:42.102Z,28.00
2018-12-18T13:31:10.115Z,28.37
2018-12-18T13:33:38.158Z,30.37
2018-12-18T13:36:06.450Z,30.63
2018-12-18T13:38:34.404Z,31.00
2018-12-18T13:41:02.380Z,31.20
2018-12-18T13:43:30.384Z,30.80
2018-12-18T13:45:58.546Z,31.67
2018-12-18T13:48:26.478Z,38.53
2018-12-18T13:50:54.467Z,33.60
2018-12-18T13:53:22.933Z,32.63
2018-12-18T13:55:50.898Z,30.37
2018-12-18T13:58:18.697Z,30.23
2018-12-18T14:00:46.627Z,27.80
2018-12-18T14:03:14.820Z,42.57
2018-12-18T14:05:42.911Z,38.63
2018-12-18T14:08:10.952Z,34.57
2018-12-18T14:10:39.040Z,34.67
2018-12-18T14:13:06.982Z,36.80
2018-12-18T14:15:34.851Z,36.33
2018-12-18T14:18:02.889Z,34.00
2018-12-18T14:20:30.780Z,27.47
2018-12-18T14:22:58.645Z,33.10
2018-12-18T14:25:27.071Z,32.73
2018-12-18T14:27:55.127Z,37.33
2018-12-18T14:30:23.191Z,34.47
2018-12-18T14:32:51.136Z,33.47
2018-12-18T14:35:18.997Z,30.60
2018-12-18T14:37:46.964Z,34.00
2018-12-18T14:40:15.154Z,31.33
2018-12-18T14:42:43.162Z,37.67
2018-12-18T14:45:11.211Z,34.20
2018-12-18T14:47:39.177Z,33.87
2018-12-18T14:50:07.543Z,39.67
2018-12-18T14:52:35.651Z,40.83
2018-12-18T14:55:03.927Z,31.07
2018-12-18T14:57:31.665Z,33.80
2018-12-18T14:59:59.506Z,40.40
2018-12-18T15:02:27.373Z,33.00
2018-12-18T15:04:55.236Z,34.40
2018-12-18T15:07:23.104Z,33.73
2018-12-18T15:09:51.092Z,34.40
2018-12-18T15:12:19.060Z,32.03
2018-12-18T15:14:47.024Z,35.17
2018-12-18T15:17:14.989Z,31.40
2018-12-18T15:19:42.980Z,29.43
2018-12-18T15:22:10.920Z,30.97
2018-12-18T15:24:38.914Z,36.43
2018-12-18T15:27:06.858Z,31.43
2018-12-18T15:29:35.823Z,33.13
2018-12-18T15:32:04.158Z,31.27
2018-12-18T15:34:32.249Z,36.73
2018-12-18T15:37:00.289Z,33.33
2018-12-18T15:39:28.256Z,28.60
2018-12-18T15:41:56.094Z,35.83
2018-12-18T15:44:23.986Z,33.57
2018-12-18T15:46:51.975Z,31.47
2018-12-18T15:49:20.063Z,36.30
2018-12-18T15:51:47.807Z,31.00
2018-12-18T15:54:15.773Z,34.03
2018-12-18T15:56:44.038Z,40.30
2018-12-18T15:59:12.004Z,31.77
2018-12-18T16:01:39.871Z,34.87
2018-12-18T16:04:07.736Z,34.17
2018-12-18T16:06:35.947Z,29.63
2018-12-18T16:09:06.396Z,32.37
2018-12-18T16:11:34.308Z,37.27
2018-12-18T16:14:02.473Z,40.80
2018-12-18T16:16:30.689Z,43.83
2018-12-18T16:18:58.729Z,36.50
2018-12-18T16:21:26.695Z,41.57
2018-12-18T16:23:54.683Z,48.87
2018-12-18T16:26:22.628Z,45.27
2018-12-18T16:28:50.820Z,39.30
2018-12-18T16:31:18.912Z,37.30
2018-12-18T16:33:46.923Z,38.67
2018-12-18T16:36:14.814Z,39.23
2018-12-18T16:38:42.806Z,34.50
2018-12-18T16:41:10.746Z,40.33
2018-12-18T16:43:38.611Z,46.93
2018-12-18T16:46:06.623Z,36.87
2018-12-18T16:48:34.667Z,35.67
2018-12-18T16:51:02.734Z,32.17
2018-12-18T16:53:30.699Z,35.87
2018-12-18T16:55:58.703Z,35.17
2018-12-18T16:58:26.775Z,36.57
2018-12-18T17:00:54.698Z,38.07
2018-12-18T17:03:22.587Z,36.30
2018-12-18T17:05:51.252Z,35.40
2018-12-18T17:08:19.470Z,32.30
2018-12-18T17:10:47.335Z,39.80
2018-12-18T17:13:15.249Z,34.10
2018-12-18T17:15:43.580Z,38.30
2018-12-18T17:18:11.755Z,35.63
2018-12-18T17:20:39.827Z,34.07
2018-12-18T17:23:07.812Z,33.77
2018-12-18T17:25:35.751Z,42.87
2018-12-18T17:28:03.835Z,43.37
2018-12-18T17:30:31.906Z,39.07
2018-12-18T17:32:59.825Z,41.00
2018-12-18T17:35:27.693Z,33.57
2018-12-18T17:37:55.559Z,34.97
2018-12-18T17:40:23.577Z,41.40
2018-12-18T17:42:51.614Z,44.77
2018-12-18T17:45:19.581Z,39.23
2018-12-18T17:47:47.501Z,42.83
2018-12-18T17:50:15.435Z,40.43
2018-12-18T17:52:44.326Z,41.60
2018-12-18T17:55:12.418Z,38.87
2018-12-18T17:57:40.299Z,48.20
2018-12-18T18:00:08.473Z,57.47
2018-12-18T18:02:36.488Z,43.87
2018-12-18T18:05:04.699Z,42.67
2018-12-18T18:07:32.695Z,43.97
2018-12-18T18:10:00.636Z,40.40
2018-12-18T18:12:30.144Z,46.33
2018-12-18T18:14:58.394Z,36.47
2018-12-18T18:17:26.491Z,42.37
2018-12-18T18:19:54.225Z,40.40
2018-12-18T18:22:22.064Z,42.33
2018-12-18T18:24:49.884Z,54.07
2018-12-18T18:27:17.795Z,41.27
2018-12-18T18:29:45.924Z,45.10
2018-12-18T18:32:13.995Z,33.87
2018-12-18T18:34:42.067Z,36.00
2018-12-18T18:37:10.109Z,43.37
2018-12-18T18:39:38.209Z,32.67
2018-12-18T18:42:06.139Z,37.63
2018-12-18T18:44:34.006Z,38.70
2018-12-18T18:47:02.104Z,39.23
2018-12-18T18:49:31.187Z,38.83
2018-12-18T18:51:59.464Z,34.97
2018-12-18T18:54:29.505Z,34.27
2018-12-18T18:56:57.533Z,34.93
2018-12-18T18:59:25.400Z,40.80
2018-12-18T19:01:53.590Z,42.27
2018-12-18T19:04:21.556Z,42.87
2018-12-18T19:06:49.922Z,40.33
2018-12-18T19:09:18.034Z,33.03
2018-12-18T19:11:45.904Z,35.60
2018-12-18T19:14:14.020Z,39.20
2018-12-18T19:16:42.014Z,35.60
2018-12-18T19:19:10.026Z,35.10
2018-12-18T19:21:37.965Z,36.63
2018-12-18T19:24:06.232Z,35.53
2018-12-18T19:26:34.171Z,35.10
2018-12-18T19:29:02.037Z,40.73
2018-12-18T19:31:29.903Z,41.70
2018-12-18T19:33:58.120Z,40.80
2018-12-18T19:36:26.262Z,38.93
2018-12-18T19:38:54.275Z,35.87
2018-12-18T19:41:22.350Z,48.90
2018-12-18T19:43:50.381Z,39.67
2018-12-18T19:46:19.924Z,32.57
2018-12-18T19:48:48.137Z,39.87
2018-12-18T19:51:16.406Z,38.27
2018-12-18T19:53:45.363Z,37.30
2018-12-18T19:56:15.161Z,31.67
2018-12-18T19:58:44.552Z,37.53
2018-12-18T20:01:12.738Z,33.17
2018-12-18T20:03:40.906Z,34.73
2018-12-18T20:06:09.022Z,32.77
2018-12-18T20:08:37.265Z,31.77
2018-12-18T20:11:05.729Z,38.87
2018-12-18T20:13:36.384Z,28.83
2018-12-18T20:16:04.662Z,36.37
2018-12-18T20:18:32.653Z,32.23
2018-12-18T20:21:01.215Z,32.27
2018-12-18T20:23:29.357Z,37.20
2018-12-18T20:25:57.970Z,34.23
2018-12-18T20:28:26.041Z,33.00
2018-12-18T20:30:54.944Z,28.63
2018-12-18T20:33:23.201Z,38.80
2018-12-18T20:35:51.134Z,38.50
2018-12-18T20:38:19.125Z,42.57
2018-12-18T20:40:47.219Z,36.73
2018-12-18T20:43:15.258Z,39.53
2018-12-18T20:45:43.348Z,32.77
2018-12-18T20:48:11.293Z,32.00
2018-12-18T20:50:39.281Z,33.90
2018-12-18T20:53:07.275Z,31.47
2018-12-18T20:55:35.685Z,36.20
2018-12-18T20:58:03.778Z,31.30
2018-12-18T21:00:31.767Z,39.43
2018-12-18T21:02:59.960Z,28.40
2018-12-18T21:05:27.739Z,27.33
2018-12-18T21:07:55.796Z,29.17
2018-12-18T21:10:23.805Z,27.00
2018-12-18T21:12:53.991Z,34.67
2018-12-18T21:15:21.985Z,33.10
2018-12-18T21:17:50.125Z,35.00
2018-12-18T21:20:18.200Z,35.60
2018-12-18T21:22:46.183Z,34.67
2018-12-18T21:25:18.873Z,37.20
2018-12-18T21:27:44.257Z,35.60
2018-12-18T21:30:12.179Z,31.43
2018-12-18T21:32:40.195Z,30.57
2018-12-18T21:35:08.009Z,35.23
2018-12-18T21:37:35.977Z,38.90
2018-12-18T21:40:05.431Z,34.77
2018-12-18T21:42:33.309Z,37.67
2018-12-18T21:45:01.885Z,33.57
2018-12-18T21:47:29.889Z,35.43
2018-12-18T21:49:58.005Z,33.83
2018-12-18T21:52:26.120Z,35.90
2018-12-18T21:54:54.271Z,35.53
2018-12-18T21:57:22.527Z,30.10
2018-12-18T21:59:50.467Z,36.17
2018-12-18T22:02:18.459Z,32.07
2018-12-18T22:04:46.554Z,33.80
2018-12-18T22:07:14.612Z,40.43
2018-12-18T22:09:42.556Z,36.57
2018-12-18T22:12:10.356Z,29.70
2018-12-18T22:14:38.412Z,33.10
2018-12-18T22:17:06.577Z,36.43
2018-12-18T22:19:34.518Z,30.23
2018-12-18T22:22:02.386Z,40.53
2018-12-18T22:24:30.375Z,40.07
2018-12-18T22:26:58.480Z,48.93
2018-12-18T22:29:26.448Z,35.87
2018-12-18T22:31:54.471Z,39.50
2018-12-18T22:34:22.489Z,37.00
2018-12-18T22:36:51.174Z,43.53
2018-12-18T22:39:19.195Z,34.37
2018-12-18T22:41:47.059Z,41.70
2018-12-18T22:44:14.975Z,44.27
2018-12-18T22:46:43.137Z,42.90
2018-12-18T22:49:11.280Z,42.33
2018-12-18T22:51:39.146Z,42.63
2018-12-18T22:54:07.160Z,41.00
2018-12-18T22:56:35.203Z,44.57
2018-12-18T22:59:03.200Z,44.07
2018-12-18T23:01:39.032Z,45.23
2018-12-18T23:04:07.122Z,48.17
2018-12-18T23:06:35.039Z,48.07
2018-12-18T23:09:04.496Z,47.17
2018-12-18T23:11:32.546Z,45.00
2018-12-18T23:14:00.485Z,52.97
2018-12-18T23:16:28.351Z,48.50
2018-12-18T23:18:56.441Z,56.00
2018-12-18T23:21:24.409Z,55.40
2018-12-18T23:23:52.273Z,48.43
2018-12-18T23:26:20.464Z,46.53
2018-12-18T23:28:48.603Z,47.00
2018-12-18T23:31:16.547Z,47.60
2018-12-18T23:33:44.293Z,49.90
2018-12-18T23:36:12.326Z,51.67
2018-12-18T23:38:40.438Z,50.00
2018-12-18T23:41:08.357Z,46.50
2018-12-18T23:43:36.275Z,51.33
2018-12-18T23:46:04.644Z,54.63
2018-12-18T23:48:32.923Z,50.87
2018-12-18T23:51:01.169Z,52.27
2018-12-18T23:53:29.235Z,50.97
2018-12-18T23:55:57.200Z,53.73
2018-12-18T23:58:25.191Z,60.17
